Главная страница
METAR-TAF:

METAR-TAF

Аэропорты :

Барахас

Мадрид, Испания

широта: 40-27N, долгота: 003-33W, высота над уровнем моря: 609 м

Текущие метеонаблюдения

Эта сводка был подготовлена 43 минут назад, в 20:30 UTC
Ветер 3 Узел от северный
Температура 7°C
Влажность 93%
Давление 1031 hPa
Видимость: 8000 м

METAR: LEMD 092030Z 35003KT 8000 NSC 07/06 Q1031 NOSIG

Время: 22:13 (21:13 UTC)

Прогноз

Эта сводка был подготовлена 4 часа и 13 минут назад, в 17:00 UTC
Прогноз действительный с 09-го 18 UTC до 10-го 24 UTC
Ветер 3 Узел переменных направлений
Видимость 10 км и более
Нет облачности ниже 1500 м, и нет кучево-дождевой облачности

TAF: LEMD 091700Z 0918/1024 VRB03KT CAVOK TX16/1015Z TN02/1007Z

Метеонаблюдения и прогнозы для более 4000 аэропортов (сводки METAR и TAF).

Имеющиеся станции представлены на карте желтыми и красными точками.

Чтобы увидеть название станции, наведите на нее мышь.

Затем щелкните, чтобы увидеть метеонаблюдения и метеопрогнозы.

Управление картой: чтобы увеличить масштаб, щелкните зеленые кнопки с черным крестиком; чтобы уменьшить масштаб, щелкните зеленую кнопку с тире; для просмотра соседних карт щелкайте зеленые стрелки.


METAR-TAF: